Time;durP1;ratioP1;P1;durP2;ratioP2;P2;SDS_P1;SDS_P2;PMS_P1;PMS_P2;Temp;Humidity;BMP_temperature;BMP_pressure;BME280_temperature;BME280_humidity;BME280_pressure;Samples;Min_cycle;Max_cycle;Signal;HPM_P1;HPM_P2
2023/03/20 00:02:25;;;;;;;45.17;24.07;;;9.60;99.90;;;;;;4829256;29;20261;-66
2023/03/20 00:04:53;;;;;;;43.73;24.50;;;9.60;99.90;;;;;;4835376;29;20260;-66
2023/03/20 00:07:22;;;;;;;44.87;23.20;;;9.60;99.90;;;;;;4834265;29;20238;-65
2023/03/20 00:09:50;;;;;;;42.47;24.13;;;9.70;99.90;;;;;;4827428;29;20244;-66
2023/03/20 00:12:24;;;;;;;47.37;25.17;;;9.70;99.90;;;;;;4814167;29;20238;-65
2023/03/20 00:14:54;;;;;;;45.87;25.30;;;9.60;99.90;;;;;;4814066;29;20251;-66
2023/03/20 00:17:22;;;;;;;42.40;22.67;;;9.60;99.90;;;;;;4812344;29;20237;-65
2023/03/20 00:19:51;;;;;;;38.37;20.17;;;9.70;99.90;;;;;;4836272;29;20226;-64
2023/03/20 00:22:21;;;;;;;38.17;21.77;;;9.80;99.90;;;;;;4862281;29;20287;-65
2023/03/20 00:24:50;;;;;;;44.83;23.63;;;9.90;99.90;;;;;;4843475;29;20263;-66
2023/03/20 00:27:18;;;;;;;45.53;25.17;;;9.80;99.90;;;;;;4829359;29;20228;-65
2023/03/20 00:29:47;;;;;;;46.83;25.07;;;9.70;99.90;;;;;;4828420;29;20251;-66
2023/03/20 00:32:23;;;;;;;39.70;22.60;;;9.60;99.90;;;;;;4838618;29;20243;-65
2023/03/20 00:34:53;;;;;;;39.80;22.67;;;9.60;99.90;;;;;;4825271;29;20237;-66
2023/03/20 00:37:22;;;;;;;39.03;22.90;;;9.60;99.90;;;;;;4828273;29;20287;-65
2023/03/20 00:39:51;;;;;;;41.70;24.47;;;9.60;99.90;;;;;;4827730;29;20230;-65
2023/03/20 00:42:21;;;;;;;39.97;23.30;;;9.60;99.90;;;;;;4826560;29;20777;-64
2023/03/20 00:44:56;;;;;;;39.87;22.60;;;9.60;99.90;;;;;;4826013;29;20727;-65
2023/03/20 00:47:27;;;;;;;37.33;23.70;;;9.70;99.90;;;;;;4827411;29;20304;-65
2023/03/20 00:49:56;;;;;;;39.07;22.87;;;9.60;99.90;;;;;;4835735;29;20297;-64
2023/03/20 00:52:28;;;;;;;39.00;22.83;;;9.50;99.90;;;;;;4843564;29;20584;-65
2023/03/20 00:54:57;;;;;;;42.50;24.17;;;9.50;99.90;;;;;;4831822;29;20232;-66
2023/03/20 00:57:29;;;;;;;45.80;24.80;;;9.50;99.90;;;;;;4825756;29;20685;-66
2023/03/20 01:00:01;;;;;;;41.20;23.97;;;9.50;99.90;;;;;;4840762;29;20234;-66
2023/03/20 01:02:32;;;;;;;45.97;26.07;;;9.40;99.90;;;;;;4824496;29;20570;-66
2023/03/20 01:05:02;;;;;;;45.33;24.73;;;9.40;99.90;;;;;;4825549;29;20240;-66
2023/03/20 01:07:34;;;;;;;46.40;25.43;;;9.40;99.90;;;;;;4824658;29;20271;-66
2023/03/20 01:10:03;;;;;;;48.30;26.57;;;9.40;99.90;;;;;;4824907;29;20238;-65
2023/03/20 01:12:32;;;;;;;54.23;27.10;;;9.30;99.90;;;;;;4826420;29;20234;-66
2023/03/20 01:15:00;;;;;;;53.27;26.50;;;9.30;99.90;;;;;;4827153;29;20699;-66
2023/03/20 01:17:34;;;;;;;53.90;26.67;;;9.30;99.90;;;;;;4823143;29;20239;-65
2023/03/20 01:20:10;;;;;;;54.50;27.47;;;9.30;99.90;;;;;;4835855;29;20237;-65
2023/03/20 01:22:39;;;;;;;53.33;27.33;;;9.30;99.90;;;;;;4843634;29;20262;-65
2023/03/20 01:25:09;;;;;;;53.77;27.13;;;9.30;99.90;;;;;;4830548;29;20299;-67
2023/03/20 01:27:37;;;;;;;55.77;26.70;;;9.20;99.90;;;;;;4840374;29;20233;-65
2023/03/20 01:30:16;;;;;;;55.50;27.80;;;9.20;99.90;;;;;;4825865;29;20287;-65
2023/03/20 01:32:47;;;;;;;53.70;27.13;;;9.20;99.90;;;;;;4824454;29;20310;-65
2023/03/20 01:35:18;;;;;;;52.17;26.13;;;9.20;99.90;;;;;;4826183;29;20325;-64
2023/03/20 01:37:47;;;;;;;48.07;25.13;;;9.20;99.90;;;;;;4824616;29;20236;-64
2023/03/20 01:40:42;;;;;;;49.97;24.57;;;9.20;99.90;;;;;;4831179;29;20219;-65
2023/03/20 01:43:18;;;;;;;48.43;25.33;;;9.30;99.90;;;;;;4844162;29;20227;-64
2023/03/20 01:46:01;;;;;;;46.70;24.43;;;9.20;99.90;;;;;;4842813;29;20233;-65
2023/03/20 01:48:56;;;;;;;43.53;23.63;;;9.20;99.90;;;;;;4837355;29;20245;-65
2023/03/20 01:51:29;;;;;;;45.23;22.70;;;9.20;99.90;;;;;;4849140;29;20686;-65
2023/03/20 01:54:05;;;;;;;43.73;22.87;;;9.10;99.90;;;;;;4849019;29;20610;-65
2023/03/20 01:56:40;;;;;;;45.10;22.67;;;9.10;99.90;;;;;;4823094;29;20275;-65
2023/03/20 01:59:14;;;;;;;44.07;22.93;;;9.20;99.90;;;;;;4806338;29;20233;-65
2023/03/20 02:01:44;;;;;;;40.07;23.07;;;9.10;99.90;;;;;;4818853;29;20251;-65
2023/03/20 02:04:27;;;;;;;42.07;22.30;;;9.10;99.90;;;;;;4824221;29;20252;-65
2023/03/20 02:07:03;;;;;;;38.43;21.37;;;9.10;99.90;;;;;;4824006;29;20293;-65
2023/03/20 02:09:41;;;;;;;36.13;20.60;;;9.20;99.90;;;;;;4839135;29;20731;-65
2023/03/20 02:12:15;;;;;;;36.13;19.70;;;9.10;99.90;;;;;;4823883;29;20264;-66
2023/03/20 02:14:45;;;;;;;35.97;19.37;;;9.00;99.90;;;;;;4823571;29;20329;-65
2023/03/20 02:17:24;;;;;;;30.83;18.30;;;8.90;99.90;;;;;;4823846;29;20236;-66
2023/03/20 02:20:11;;;;;;;29.60;16.57;;;8.80;99.90;;;;;;4833938;29;20330;-66
2023/03/20 02:23:30;;;;;;;23.93;14.07;;;8.80;99.90;;;;;;4841806;29;20238;-65
2023/03/20 02:26:29;;;;;;;23.00;13.13;;;8.70;99.90;;;;;;4819326;29;20292;-65
2023/03/20 02:29:31;;;;;;;19.70;11.73;;;8.70;99.90;;;;;;4821857;29;20241;-65
2023/03/20 02:32:35;;;;;;;18.57;11.43;;;8.60;99.90;;;;;;4822955;29;20312;-65
2023/03/20 02:35:36;;;;;;;20.60;11.37;;;8.60;99.90;;;;;;4805250;29;20249;-65
2023/03/20 02:38:30;;;;;;;17.90;11.30;;;8.60;99.90;;;;;;4820451;29;20644;-64
2023/03/20 02:41:17;;;;;;;15.97;10.87;;;8.60;99.90;;;;;;5122398;27;20628;-65
2023/03/20 02:43:54;;;;;;;18.73;11.83;;;8.70;99.90;;;;;;5111975;28;20231;-65
2023/03/20 02:46:32;;;;;;;16.67;10.33;;;8.70;99.90;;;;;;5112629;28;20759;-65
2023/03/20 02:49:10;;;;;;;16.10;10.10;;;8.60;99.90;;;;;;5112426;28;20211;-65
2023/03/20 02:51:41;;;;;;;17.07;10.73;;;8.70;99.90;;;;;;5112180;28;20224;-65
2023/03/20 02:54:21;;;;;;;18.67;11.70;;;8.70;99.90;;;;;;5112130;28;20219;-65
2023/03/20 02:57:01;;;;;;;16.53;11.50;;;8.70;99.90;;;;;;5130275;27;20222;-65
2023/03/20 02:59:36;;;;;;;18.13;11.47;;;8.70;99.90;;;;;;5149886;27;20226;-65
2023/03/20 03:02:08;;;;;;;19.17;12.60;;;8.60;99.90;;;;;;5098292;27;20246;-65
2023/03/20 03:04:42;;;;;;;17.07;11.77;;;8.60;99.90;;;;;;5118536;28;20229;-65
2023/03/20 03:07:16;;;;;;;18.10;12.03;;;8.70;99.90;;;;;;5093274;28;20227;-65
2023/03/20 03:09:52;;;;;;;16.97;11.43;;;8.70;99.90;;;;;;5068150;28;20248;-65
2023/03/20 03:12:26;;;;;;;18.03;11.20;;;8.60;99.90;;;;;;5069382;28;20255;-64
2023/03/20 03:14:57;;;;;;;18.27;11.43;;;8.60;99.90;;;;;;5103681;27;20232;-66
2023/03/20 03:17:29;;;;;;;16.83;11.07;;;8.60;99.90;;;;;;5088272;28;20651;-66
2023/03/20 03:20:04;;;;;;;14.97;10.73;;;8.60;99.90;;;;;;5096225;28;20271;-64
2023/03/20 03:22:35;;;;;;;17.30;10.60;;;8.60;99.90;;;;;;5105047;28;20239;-65
2023/03/20 03:25:03;;;;;;;14.07;10.50;;;8.60;99.90;;;;;;5086547;28;20777;-65
2023/03/20 03:27:40;;;;;;;15.13;10.50;;;8.50;99.90;;;;;;5092073;28;20244;-65
2023/03/20 03:30:15;;;;;;;13.53;9.57;;;8.50;99.90;;;;;;5085969;28;20222;-65
2023/03/20 03:32:47;;;;;;;14.20;9.90;;;8.50;99.90;;;;;;5082288;28;20327;-65
2023/03/20 03:35:18;;;;;;;13.27;9.47;;;8.60;99.90;;;;;;5073824;28;20237;-64
2023/03/20 03:37:57;;;;;;;13.10;9.17;;;8.60;99.90;;;;;;5068850;28;20579;-64
2023/03/20 03:40:34;;;;;;;14.13;8.90;;;8.60;99.90;;;;;;5068583;28;20287;-64
2023/03/20 03:43:10;;;;;;;12.53;8.07;;;8.50;99.90;;;;;;5066890;28;20235;-64
2023/03/20 03:45:44;;;;;;;12.40;7.80;;;8.50;99.90;;;;;;5068330;28;20694;-65
2023/03/20 03:48:18;;;;;;;12.90;8.27;;;8.50;99.90;;;;;;5072179;28;20217;-65
2023/03/20 03:50:51;;;;;;;11.17;7.67;;;8.50;99.90;;;;;;5065222;28;20227;-65
2023/03/20 03:53:22;;;;;;;12.60;7.60;;;8.50;99.90;;;;;;5054009;28;20246;-64
2023/03/20 03:55:55;;;;;;;11.47;7.63;;;8.50;99.90;;;;;;5078942;28;20229;-65
2023/03/20 03:58:29;;;;;;;11.53;7.23;;;8.40;99.90;;;;;;5068607;28;20239;-63
2023/03/20 04:01:00;;;;;;;11.73;7.53;;;8.40;99.90;;;;;;5063908;28;20263;-65
2023/03/20 04:03:34;;;;;;;9.93;7.03;;;8.40;99.90;;;;;;5066613;28;20228;-64
2023/03/20 04:06:04;;;;;;;11.47;7.23;;;8.30;99.90;;;;;;5075164;28;20266;-65
2023/03/20 04:08:34;;;;;;;11.70;8.33;;;8.30;99.90;;;;;;5074995;28;20255;-64
2023/03/20 04:11:03;;;;;;;10.10;7.50;;;8.30;99.90;;;;;;5073799;28;20650;-65
2023/03/20 04:13:33;;;;;;;11.80;6.97;;;8.30;99.90;;;;;;5063252;28;20251;-65
2023/03/20 04:16:01;;;;;;;9.10;7.23;;;8.30;99.90;;;;;;5034991;28;20708;-65
2023/03/20 04:18:30;;;;;;;10.80;6.93;;;8.30;99.90;;;;;;5053526;28;20619;-65
2023/03/20 04:20:59;;;;;;;9.80;7.03;;;8.30;99.90;;;;;;5054755;28;20244;-65
2023/03/20 04:23:28;;;;;;;7.97;6.37;;;8.30;99.90;;;;;;5053434;28;20228;-65
2023/03/20 04:26:01;;;;;;;9.37;7.00;;;8.30;99.90;;;;;;5078263;28;20720;-65
2023/03/20 04:28:35;;;;;;;7.30;5.93;;;8.30;99.90;;;;;;5085957;28;20232;-65
2023/03/20 04:31:15;;;;;;;10.37;6.70;;;8.20;99.90;;;;;;5067198;28;20228;-64
2023/03/20 04:34:04;;;;;;;9.77;6.87;;;8.30;99.90;;;;;;5054491;28;20224;-65
2023/03/20 04:36:56;;;;;;;9.00;6.67;;;8.20;99.90;;;;;;5074664;28;20226;-65
2023/03/20 04:39:36;;;;;;;10.13;7.27;;;8.20;99.90;;;;;;5073023;28;20250;-65
2023/03/20 04:42:06;;;;;;;9.47;7.20;;;8.20;99.90;;;;;;5060698;28;20265;-65
2023/03/20 04:44:37;;;;;;;9.67;6.90;;;8.20;99.90;;;;;;5049141;28;20229;-65
2023/03/20 04:47:05;;;;;;;10.60;7.57;;;8.30;99.90;;;;;;5037289;28;20301;-64
2023/03/20 04:49:37;;;;;;;8.53;6.70;;;8.20;99.90;;;;;;5052845;28;20227;-65
2023/03/20 04:52:06;;;;;;;10.27;7.87;;;8.20;99.90;;;;;;5045386;28;20225;-65
2023/03/20 04:54:42;;;;;;;9.63;7.30;;;8.20;99.90;;;;;;5053002;28;20565;-64
2023/03/20 04:57:12;;;;;;;8.97;7.00;;;8.10;99.90;;;;;;5064637;28;20219;-65
2023/03/20 04:59:41;;;;;;;9.43;7.07;;;8.20;99.90;;;;;;5072706;28;20258;-65
2023/03/20 05:02:13;;;;;;;9.03;7.27;;;8.20;99.90;;;;;;5058373;28;20238;-65
2023/03/20 05:04:42;;;;;;;12.00;7.47;;;8.20;99.90;;;;;;5069363;28;20228;-65
2023/03/20 05:07:10;;;;;;;8.87;6.70;;;8.20;99.90;;;;;;5072732;28;20242;-65
2023/03/20 05:09:52;;;;;;;10.80;7.13;;;8.30;99.90;;;;;;5072714;28;20224;-64
2023/03/20 05:12:21;;;;;;;12.07;7.30;;;8.30;99.90;;;;;;5073898;28;20567;-65
2023/03/20 05:15:24;;;;;;;8.40;6.80;;;8.30;99.90;;;;;;5053892;28;20242;-65
2023/03/20 05:18:11;;;;;;;10.23;7.17;;;8.30;99.90;;;;;;5056949;28;20239;-65
2023/03/20 05:21:08;;;;;;;10.47;6.17;;;8.20;99.90;;;;;;5060617;28;20227;-64
2023/03/20 05:24:06;;;;;;;13.93;7.77;;;8.30;99.90;;;;;;5034207;28;20366;-64
2023/03/20 05:26:54;;;;;;;11.73;7.43;;;8.30;99.90;;;;;;5069856;28;20223;-64
2023/03/20 05:29:25;;;;;;;11.63;8.00;;;8.30;99.90;;;;;;5053773;28;20263;-63
2023/03/20 05:32:11;;;;;;;10.10;7.43;;;8.20;99.90;;;;;;5065649;28;20715;-64
2023/03/20 05:35:08;;;;;;;12.07;8.43;;;8.20;99.90;;;;;;5068846;28;20711;-64
2023/03/20 05:38:04;;;;;;;10.57;7.80;;;8.20;99.90;;;;;;5058192;28;20253;-63
2023/03/20 05:40:42;;;;;;;12.87;8.27;;;8.20;99.90;;;;;;5068419;28;20239;-64
2023/03/20 05:43:30;;;;;;;12.70;8.60;;;8.20;99.90;;;;;;5053325;28;20223;-65
2023/03/20 05:46:10;;;;;;;11.70;8.53;;;8.20;99.90;;;;;;5052018;28;20700;-65
2023/03/20 05:48:58;;;;;;;13.17;8.53;;;8.30;99.90;;;;;;5069194;28;20227;-65
2023/03/20 05:51:44;;;;;;;11.77;8.13;;;8.30;99.90;;;;;;5062871;28;20319;-65
2023/03/20 05:54:30;;;;;;;10.43;8.17;;;8.20;99.90;;;;;;5053009;28;20219;-65
2023/03/20 05:57:19;;;;;;;12.50;8.40;;;8.20;99.90;;;;;;5064479;28;20234;-65
2023/03/20 05:59:50;;;;;;;10.07;8.10;;;8.20;99.90;;;;;;5073062;28;20699;-65
2023/03/20 06:02:38;;;;;;;12.40;8.57;;;8.20;99.90;;;;;;5068965;28;20297;-65
2023/03/20 06:05:34;;;;;;;12.00;8.93;;;8.20;99.90;;;;;;5053904;28;20216;-64
2023/03/20 06:08:08;;;;;;;10.60;8.10;;;8.10;99.90;;;;;;5051813;28;20250;-65
2023/03/20 06:10:36;;;;;;;12.00;8.50;;;8.20;99.90;;;;;;5051537;28;20708;-64
2023/03/20 06:13:04;;;;;;;12.83;8.80;;;8.10;99.90;;;;;;5053125;28;20719;-64
2023/03/20 06:15:33;;;;;;;10.53;8.40;;;8.10;99.90;;;;;;5069775;28;20632;-64
2023/03/20 06:18:16;;;;;;;10.03;8.23;;;8.20;99.90;;;;;;5060977;28;20228;-65
2023/03/20 06:20:46;;;;;;;11.23;7.97;;;8.20;99.90;;;;;;5061640;28;20228;-65
2023/03/20 06:23:19;;;;;;;11.30;8.53;;;8.20;99.90;;;;;;5057893;28;20217;-65
2023/03/20 06:25:51;;;;;;;13.27;9.33;;;8.20;99.90;;;;;;5068086;28;20651;-65
2023/03/20 06:28:21;;;;;;;11.83;8.33;;;8.20;99.90;;;;;;5072553;28;20250;-65
2023/03/20 06:30:56;;;;;;;11.43;9.27;;;8.20;99.90;;;;;;5048796;28;20322;-66
2023/03/20 06:33:25;;;;;;;11.47;8.83;;;8.20;99.90;;;;;;5072149;28;20303;-64
2023/03/20 06:36:03;;;;;;;11.47;9.10;;;8.30;99.90;;;;;;5058770;28;20678;-64
2023/03/20 06:38:32;;;;;;;11.57;8.00;;;8.30;99.90;;;;;;5065323;28;20220;-65
2023/03/20 06:41:07;;;;;;;13.43;8.93;;;8.30;99.90;;;;;;5067252;28;20281;-65
2023/03/20 06:43:38;;;;;;;12.37;8.43;;;8.30;99.90;;;;;;5068313;28;20688;-60
2023/03/20 06:46:07;;;;;;;11.33;8.10;;;8.30;99.90;;;;;;5064824;28;20257;-63
2023/03/20 06:48:37;;;;;;;12.10;8.50;;;8.30;99.90;;;;;;5063958;28;20778;-62
2023/03/20 06:51:13;;;;;;;10.73;8.37;;;8.30;99.90;;;;;;5065893;28;20293;-64
2023/03/20 06:53:50;;;;;;;11.20;8.07;;;8.30;99.90;;;;;;5065833;28;20221;-64
2023/03/20 06:56:21;;;;;;;10.50;7.87;;;8.40;99.90;;;;;;5077988;28;20232;-61
2023/03/20 06:58:50;;;;;;;11.83;8.20;;;8.40;99.90;;;;;;5065365;28;20223;-64
2023/03/20 07:01:19;;;;;;;10.20;7.40;;;8.40;99.90;;;;;;5065222;28;20223;-65
2023/03/20 07:03:48;;;;;;;8.53;7.07;;;8.40;99.90;;;;;;5063382;28;20279;-64
2023/03/20 07:06:24;;;;;;;11.77;7.37;;;8.40;99.90;;;;;;5066216;28;20296;-64
2023/03/20 07:08:52;;;;;;;9.13;7.37;;;8.40;99.90;;;;;;5064469;28;20224;-64
2023/03/20 07:11:22;;;;;;;8.83;7.07;;;8.40;99.90;;;;;;5064391;28;20575;-64
2023/03/20 07:13:56;;;;;;;10.87;7.23;;;8.50;99.90;;;;;;5065451;28;20221;-64
2023/03/20 07:16:35;;;;;;;9.60;6.03;;;8.50;99.90;;;;;;5065569;28;20264;-61
2023/03/20 07:19:04;;;;;;;8.57;6.37;;;8.50;99.90;;;;;;5064354;28;20696;-65
2023/03/20 07:21:36;;;;;;;8.70;6.83;;;8.50;99.90;;;;;;5064752;28;20578;-64
2023/03/20 07:24:07;;;;;;;10.47;6.80;;;8.60;99.90;;;;;;5066168;28;20300;-62
2023/03/20 07:26:42;;;;;;;9.57;6.90;;;8.60;99.90;;;;;;5066660;28;20227;-65
2023/03/20 07:29:15;;;;;;;9.70;6.27;;;8.60;99.90;;;;;;5069297;28;20231;-64
2023/03/20 07:31:46;;;;;;;9.53;6.33;;;8.60;99.90;;;;;;5066983;28;20704;-64
2023/03/20 07:34:24;;;;;;;10.03;6.77;;;8.70;99.90;;;;;;5070142;28;20224;-63
2023/03/20 07:36:56;;;;;;;9.57;6.80;;;8.70;99.90;;;;;;5070821;28;20702;-63
2023/03/20 07:39:27;;;;;;;9.50;7.07;;;8.70;99.90;;;;;;5067896;28;20635;-64
2023/03/20 07:42:13;;;;;;;9.87;6.27;;;8.70;99.90;;;;;;5068253;28;20592;-64
2023/03/20 07:44:54;;;;;;;11.60;6.93;;;8.70;99.90;;;;;;5067785;28;20219;-64
2023/03/20 07:47:24;;;;;;;8.40;6.50;;;8.70;99.90;;;;;;5083260;28;20228;-64
2023/03/20 07:49:54;;;;;;;8.83;7.03;;;8.80;99.90;;;;;;5068713;28;20248;-65
2023/03/20 07:52:25;;;;;;;10.70;7.00;;;8.80;99.90;;;;;;5065164;28;20308;-64
2023/03/20 07:54:56;;;;;;;10.33;7.13;;;8.80;99.90;;;;;;5067916;28;20728;-65
2023/03/20 07:57:26;;;;;;;9.93;7.70;;;8.90;99.90;;;;;;5069393;28;20408;-64
2023/03/20 08:00:07;;;;;;;10.93;7.83;;;8.90;99.90;;;;;;5067963;28;20235;-64
2023/03/20 08:02:39;;;;;;;8.63;7.47;;;8.90;99.90;;;;;;5066753;28;20229;-64
2023/03/20 08:05:12;;;;;;;8.87;7.27;;;9.00;99.90;;;;;;5083521;28;20625;-64
2023/03/20 08:07:44;;;;;;;9.07;7.60;;;9.00;99.90;;;;;;5066673;28;20587;-64
2023/03/20 08:10:14;;;;;;;10.90;7.53;;;9.00;99.90;;;;;;5068399;28;20221;-62
2023/03/20 08:12:43;;;;;;;10.60;7.47;;;9.10;99.90;;;;;;5066301;28;20784;-64
2023/03/20 08:15:14;;;;;;;11.93;7.30;;;9.10;99.90;;;;;;5067969;28;20753;-64
2023/03/20 08:17:44;;;;;;;12.17;7.87;;;9.00;99.90;;;;;;5068131;28;20225;-61
2023/03/20 08:20:18;;;;;;;10.40;8.20;;;9.10;99.90;;;;;;5071547;28;20285;-61
2023/03/20 08:22:49;;;;;;;11.37;8.17;;;9.00;99.90;;;;;;5077552;28;20220;-64
2023/03/20 08:25:18;;;;;;;10.57;7.67;;;9.00;99.90;;;;;;5084144;28;20294;-64
2023/03/20 08:27:52;;;;;;;11.07;8.10;;;8.90;99.90;;;;;;5083629;28;20294;-63
2023/03/20 08:30:28;;;;;;;12.37;7.77;;;8.90;99.90;;;;;;5084835;28;20239;-65
2023/03/20 08:33:00;;;;;;;11.93;8.60;;;8.90;99.90;;;;;;5080127;28;20235;-64
2023/03/20 08:35:38;;;;;;;15.27;9.20;;;8.90;99.90;;;;;;5079983;28;20290;-64
2023/03/20 08:38:24;;;;;;;9.87;8.40;;;8.90;99.90;;;;;;5080947;28;20214;-63
2023/03/20 08:41:02;;;;;;;12.03;8.30;;;8.90;99.90;;;;;;5088404;28;20247;-60
2023/03/20 08:43:41;;;;;;;11.20;8.37;;;9.00;99.90;;;;;;5082159;28;20254;-60
2023/03/20 08:46:25;;;;;;;13.93;8.00;;;9.00;99.90;;;;;;5086911;28;20224;-62
2023/03/20 08:48:57;;;;;;;11.13;9.10;;;9.00;99.90;;;;;;5085661;28;20239;-64
2023/03/20 08:51:34;;;;;;;12.93;8.97;;;9.00;99.90;;;;;;5087094;28;20256;-65
2023/03/20 08:54:15;;;;;;;11.27;8.13;;;9.10;99.90;;;;;;5084566;28;20230;-61
2023/03/20 08:56:45;;;;;;;12.50;8.77;;;9.20;99.90;;;;;;5082183;28;20231;-64
2023/03/20 08:59:15;;;;;;;12.23;8.50;;;9.20;99.90;;;;;;5085339;28;20260;-63
2023/03/20 09:01:43;;;;;;;11.13;8.93;;;9.20;99.90;;;;;;5074711;28;20657;-61
2023/03/20 09:04:19;;;;;;;11.40;9.77;;;9.30;99.90;;;;;;5078199;28;20235;-64
2023/03/20 09:06:52;;;;;;;13.37;9.47;;;9.30;99.90;;;;;;5072342;28;20315;-64
2023/03/20 09:09:28;;;;;;;11.73;8.57;;;9.40;99.90;;;;;;5075820;28;20243;-65
2023/03/20 09:11:57;;;;;;;14.10;10.93;;;9.40;99.90;;;;;;5072796;28;20228;-64
2023/03/20 09:14:26;;;;;;;16.83;9.17;;;9.40;99.90;;;;;;5089253;28;20242;-64
2023/03/20 09:16:54;;;;;;;11.77;8.57;;;9.40;99.90;;;;;;5071063;28;20229;-62
2023/03/20 09:19:23;;;;;;;15.70;9.00;;;9.40;99.90;;;;;;5069993;28;20299;-64
2023/03/20 09:21:52;;;;;;;11.97;9.53;;;9.50;99.90;;;;;;5071824;28;20247;-63
2023/03/20 09:24:22;;;;;;;13.50;9.70;;;9.50;99.90;;;;;;5071889;28;20228;-61
2023/03/20 09:26:51;;;;;;;14.10;9.27;;;9.50;99.90;;;;;;5068922;28;20643;-66
2023/03/20 09:29:19;;;;;;;16.07;9.50;;;9.50;99.90;;;;;;5069346;28;20232;-64
2023/03/20 09:31:50;;;;;;;12.63;8.93;;;9.50;99.90;;;;;;5069358;28;20229;-65
2023/03/20 09:34:28;;;;;;;15.23;8.93;;;9.50;99.90;;;;;;5069913;28;20228;-65
2023/03/20 09:37:06;;;;;;;15.13;9.73;;;9.60;99.90;;;;;;5072987;28;20241;-65
2023/03/20 09:39:39;;;;;;;13.63;8.80;;;9.50;99.90;;;;;;5069064;28;20608;-63
2023/03/20 09:42:18;;;;;;;13.17;9.70;;;9.50;99.90;;;;;;5070013;28;20599;-65
2023/03/20 09:44:55;;;;;;;14.43;10.17;;;9.50;99.90;;;;;;5070556;28;20220;-65
2023/03/20 09:47:35;;;;;;;15.80;9.33;;;9.40;99.90;;;;;;5066754;28;20224;-65
2023/03/20 09:50:21;;;;;;;12.20;8.93;;;9.40;99.90;;;;;;5066620;28;20232;-61
2023/03/20 09:52:58;;;;;;;12.70;8.20;;;9.40;99.90;;;;;;5066580;28;20250;-65
2023/03/20 09:55:35;;;;;;;15.63;9.83;;;9.50;99.90;;;;;;5066465;28;20577;-65
2023/03/20 09:58:12;;;;;;;13.47;8.60;;;9.50;99.90;;;;;;5081330;28;20587;-64
2023/03/20 10:00:49;;;;;;;13.83;9.03;;;9.60;99.90;;;;;;5066248;28;20234;-66
2023/03/20 10:03:20;;;;;;;13.00;8.87;;;9.60;99.90;;;;;;5067096;28;20220;-65
2023/03/20 10:05:56;;;;;;;14.43;9.23;;;9.70;99.90;;;;;;5067756;28;20765;-67
2023/03/20 10:08:35;;;;;;;11.93;8.77;;;9.70;99.90;;;;;;5065485;28;20228;-61
2023/03/20 10:11:18;;;;;;;15.33;8.93;;;9.80;99.90;;;;;;5066605;28;20225;-65
2023/03/20 10:14:02;;;;;;;10.87;8.53;;;9.80;99.90;;;;;;5068709;28;20251;-65
2023/03/20 10:16:46;;;;;;;13.53;8.53;;;9.80;99.90;;;;;;5066494;28;20591;-67
2023/03/20 10:19:22;;;;;;;11.83;8.17;;;9.90;99.90;;;;;;5065539;28;20272;-66
2023/03/20 10:22:01;;;;;;;10.27;8.27;;;10.00;99.90;;;;;;5065913;28;20688;-65
2023/03/20 10:24:40;;;;;;;13.63;8.83;;;10.00;99.90;;;;;;5065389;28;20821;-66
2023/03/20 10:27:20;;;;;;;12.47;8.60;;;9.90;99.90;;;;;;5067783;28;20238;-66
2023/03/20 10:30:14;;;;;;;11.30;8.20;;;9.80;99.90;;;;;;5064671;28;20727;-66
2023/03/20 10:32:51;;;;;;;13.43;8.63;;;9.80;99.90;;;;;;5066059;28;20239;-66
2023/03/20 10:35:28;;;;;;;13.57;8.20;;;9.80;99.90;;;;;;5069377;28;20236;-62
2023/03/20 10:38:14;;;;;;;10.60;7.77;;;9.70;99.90;;;;;;5068499;28;20233;-65
2023/03/20 10:40:44;;;;;;;11.73;7.90;;;9.80;99.90;;;;;;5067027;28;20612;-64
2023/03/20 10:43:20;;;;;;;11.33;7.67;;;9.80;99.90;;;;;;5066493;28;20252;-64
2023/03/20 10:45:55;;;;;;;10.40;7.57;;;9.90;99.90;;;;;;5065771;28;20229;-67
2023/03/20 10:48:30;;;;;;;10.23;7.83;;;10.00;99.90;;;;;;5066125;28;20596;-64
2023/03/20 10:51:02;;;;;;;10.00;7.13;;;10.00;99.90;;;;;;5064399;28;20305;-64
2023/03/20 10:53:34;;;;;;;13.43;7.70;;;10.00;99.90;;;;;;5065058;28;20237;-64
2023/03/20 10:56:10;;;;;;;11.03;7.67;;;9.90;99.90;;;;;;5061574;28;20224;-65
2023/03/20 10:58:44;;;;;;;10.67;7.13;;;9.90;99.90;;;;;;5065089;28;20224;-64
2023/03/20 11:01:19;;;;;;;12.17;7.30;;;9.90;99.90;;;;;;5067392;28;20251;-64
2023/03/20 11:03:48;;;;;;;11.40;7.80;;;10.00;99.90;;;;;;5067239;28;20225;-63
2023/03/20 11:06:23;;;;;;;12.87;7.87;;;10.00;99.90;;;;;;5068545;28;20238;-65
2023/03/20 11:08:55;;;;;;;10.80;7.30;;;10.00;99.90;;;;;;5069565;28;20235;-62
2023/03/20 11:11:26;;;;;;;11.47;7.10;;;10.10;99.90;;;;;;5070091;28;20237;-65
2023/03/20 11:13:57;;;;;;;11.03;7.60;;;10.10;99.90;;;;;;5066138;28;20759;-65
2023/03/20 11:16:35;;;;;;;9.87;7.33;;;10.10;99.90;;;;;;5067034;28;20223;-66
2023/03/20 11:19:18;;;;;;;9.10;7.10;;;10.20;99.90;;;;;;5069860;28;20262;-66
2023/03/20 11:21:48;;;;;;;11.03;6.97;;;10.40;99.90;;;;;;5066936;28;20230;-65
2023/03/20 11:24:27;;;;;;;12.00;7.03;;;10.40;99.90;;;;;;5067392;28;20225;-66
2023/03/20 11:27:06;;;;;;;9.53;7.13;;;10.40;99.90;;;;;;5070781;28;20681;-66
2023/03/20 11:29:36;;;;;;;10.67;7.33;;;10.40;99.90;;;;;;5069215;28;20233;-66
2023/03/20 11:32:07;;;;;;;9.97;6.30;;;10.40;99.90;;;;;;5067557;28;20325;-66
2023/03/20 11:34:39;;;;;;;9.30;7.17;;;10.50;99.90;;;;;;5064797;28;20220;-66
2023/03/20 11:37:22;;;;;;;8.60;6.40;;;10.60;99.90;;;;;;5064950;28;20229;-62
2023/03/20 11:39:59;;;;;;;9.47;7.30;;;10.60;99.90;;;;;;5066197;28;20601;-66
2023/03/20 11:42:29;;;;;;;12.67;6.93;;;10.70;99.90;;;;;;5066395;28;20627;-66
2023/03/20 11:45:01;;;;;;;10.70;7.37;;;10.80;99.90;;;;;;5068993;28;20234;-65
2023/03/20 11:47:33;;;;;;;9.90;7.23;;;10.90;99.90;;;;;;5066284;28;20231;-66
2023/03/20 11:50:04;;;;;;;8.80;6.20;;;11.10;99.90;;;;;;5065569;28;20238;-67
2023/03/20 11:52:35;;;;;;;9.47;6.77;;;11.30;99.90;;;;;;5064851;28;20616;-67
2023/03/20 11:55:20;;;;;;;8.53;6.40;;;11.30;99.90;;;;;;5068160;28;20250;-67
2023/03/20 11:57:49;;;;;;;14.17;6.60;;;11.40;99.90;;;;;;5063595;28;20560;-67
2023/03/20 12:00:22;;;;;;;9.70;6.40;;;11.60;99.90;;;;;;5068919;28;20733;-66
2023/03/20 12:02:50;;;;;;;10.37;5.90;;;11.80;99.90;;;;;;5070495;28;20217;-67
2023/03/20 12:05:31;;;;;;;8.57;5.43;;;11.80;99.90;;;;;;5068975;28;20315;-67
2023/03/20 12:08:03;;;;;;;11.10;6.00;;;11.70;99.90;;;;;;5067699;28;20226;-63
2023/03/20 12:10:36;;;;;;;8.80;6.47;;;11.70;99.90;;;;;;5069158;28;20225;-67
2023/03/20 12:13:11;;;;;;;8.33;5.47;;;11.70;99.90;;;;;;5071404;28;20233;-67
2023/03/20 12:15:46;;;;;;;9.00;5.93;;;11.60;99.90;;;;;;5071036;28;20331;-67
2023/03/20 12:18:22;;;;;;;7.47;5.37;;;11.60;99.90;;;;;;5068210;28;20261;-66
2023/03/20 12:21:02;;;;;;;8.53;5.13;;;11.60;99.90;;;;;;5065442;28;20648;-67
2023/03/20 12:23:34;;;;;;;9.53;5.50;;;11.50;99.90;;;;;;5069767;28;20354;-67
2023/03/20 12:26:06;;;;;;;8.40;5.37;;;11.50;99.90;;;;;;5069848;28;20247;-67
2023/03/20 12:28:41;;;;;;;7.63;4.83;;;11.60;99.90;;;;;;5066294;28;20229;-67
2023/03/20 12:31:22;;;;;;;10.83;5.27;;;11.50;99.90;;;;;;5068209;28;20237;-66
2023/03/20 12:33:54;;;;;;;7.43;5.27;;;11.50;99.90;;;;;;5068782;28;20581;-66
2023/03/20 12:36:31;;;;;;;6.73;4.90;;;11.50;99.90;;;;;;5071434;28;20801;-66
2023/03/20 12:39:01;;;;;;;7.80;5.20;;;11.40;99.90;;;;;;5067080;28;21460;-62
2023/03/20 12:41:33;;;;;;;9.07;5.23;;;11.40;99.90;;;;;;5067161;28;20230;-61
2023/03/20 12:44:26;;;;;;;9.77;4.90;;;11.30;99.90;;;;;;5066732;28;20577;-65
2023/03/20 12:47:09;;;;;;;8.30;5.47;;;11.20;99.90;;;;;;5067350;28;20272;-66
2023/03/20 12:49:50;;;;;;;9.10;5.40;;;11.10;99.90;;;;;;5067522;28;20226;-65
2023/03/20 12:52:27;;;;;;;6.27;4.60;;;11.10;99.90;;;;;;5068447;28;20230;-66
2023/03/20 12:55:20;;;;;;;6.87;5.13;;;11.10;99.90;;;;;;5068345;28;20264;-60
2023/03/20 12:58:00;;;;;;;8.67;4.90;;;11.00;99.90;;;;;;5069911;28;20225;-66
2023/03/20 13:00:34;;;;;;;8.70;5.07;;;11.00;99.90;;;;;;5066074;28;20236;-65
2023/03/20 13:03:17;;;;;;;8.20;4.93;;;11.10;99.90;;;;;;5066489;28;20230;-66
2023/03/20 13:05:52;;;;;;;6.90;4.90;;;11.10;99.90;;;;;;5067196;28;20732;-64
2023/03/20 13:08:37;;;;;;;8.83;4.80;;;11.10;99.90;;;;;;5067632;28;20695;-65
2023/03/20 13:11:13;;;;;;;6.13;4.40;;;11.00;99.90;;;;;;5065719;28;20220;-65
2023/03/20 13:13:52;;;;;;;7.73;4.73;;;11.00;99.90;;;;;;5066905;28;20222;-64
2023/03/20 13:16:31;;;;;;;5.50;4.60;;;11.00;99.90;;;;;;5069139;28;20219;-65
2023/03/20 13:19:06;;;;;;;7.43;4.73;;;10.90;99.90;;;;;;5070080;28;20218;-62
2023/03/20 13:21:42;;;;;;;7.67;4.87;;;10.80;99.90;;;;;;5069828;28;20470;-65
2023/03/20 13:24:27;;;;;;;7.77;4.93;;;10.90;99.90;;;;;;5067995;28;20220;-65
2023/03/20 13:27:03;;;;;;;8.53;4.50;;;10.90;99.90;;;;;;5068314;28;20261;-65
2023/03/20 13:29:40;;;;;;;6.33;4.73;;;10.90;99.90;;;;;;5070890;28;20229;-65